sensor_id;sensor_type;location;lat;lon;timestamp;temperature;humidity
3954;DHT22;1991;48.682;9.030;2023-04-03T00:00:56;3.70;99.90
3954;DHT22;1991;48.682;9.030;2023-04-03T00:03:21;3.60;99.90
3954;DHT22;1991;48.682;9.030;2023-04-03T00:05:47;3.60;99.90
3954;DHT22;1991;48.682;9.030;2023-04-03T00:08:13;3.60;99.90
3954;DHT22;1991;48.682;9.030;2023-04-03T00:10:39;3.60;99.90
3954;DHT22;1991;48.682;9.030;2023-04-03T00:13:05;3.60;99.90
3954;DHT22;1991;48.682;9.030;2023-04-03T00:15:31;3.60;99.90
3954;DHT22;1991;48.682;9.030;2023-04-03T00:17:57;3.60;99.90
3954;DHT22;1991;48.682;9.030;2023-04-03T00:20:23;3.50;99.90
3954;DHT22;1991;48.682;9.030;2023-04-03T00:22:48;3.50;99.90
3954;DHT22;1991;48.682;9.030;2023-04-03T00:25:15;3.50;99.90
3954;DHT22;1991;48.682;9.030;2023-04-03T00:27:40;3.40;99.90
3954;DHT22;1991;48.682;9.030;2023-04-03T00:30:08;3.40;99.90
3954;DHT22;1991;48.682;9.030;2023-04-03T00:32:34;3.40;99.90
3954;DHT22;1991;48.682;9.030;2023-04-03T00:34:59;3.40;99.90
3954;DHT22;1991;48.682;9.030;2023-04-03T00:37:25;3.40;99.90
3954;DHT22;1991;48.682;9.030;2023-04-03T00:39:51;3.40;99.90
3954;DHT22;1991;48.682;9.030;2023-04-03T00:42:16;3.30;99.90
3954;DHT22;1991;48.682;9.030;2023-04-03T00:47:10;3.40;99.90
3954;DHT22;1991;48.682;9.030;2023-04-03T00:49:37;3.30;99.90
3954;DHT22;1991;48.682;9.030;2023-04-03T00:52:05;3.30;99.90
3954;DHT22;1991;48.682;9.030;2023-04-03T00:54:32;3.30;99.90
3954;DHT22;1991;48.682;9.030;2023-04-03T00:57:00;3.30;99.90
3954;DHT22;1991;48.682;9.030;2023-04-03T00:59:30;3.30;99.90
3954;DHT22;1991;48.682;9.030;2023-04-03T01:01:56;3.20;99.90
3954;DHT22;1991;48.682;9.030;2023-04-03T01:04:34;3.20;99.90
3954;DHT22;1991;48.682;9.030;2023-04-03T01:07:07;3.20;99.90
3954;DHT22;1991;48.682;9.030;2023-04-03T01:09:33;3.20;99.90
3954;DHT22;1991;48.682;9.030;2023-04-03T01:14:47;3.20;99.90
3954;DHT22;1991;48.682;9.030;2023-04-03T01:17:44;3.20;99.90
3954;DHT22;1991;48.682;9.030;2023-04-03T01:25:52;3.30;99.90
3954;DHT22;1991;48.682;9.030;2023-04-03T01:28:31;3.20;99.90
3954;DHT22;1991;48.682;9.030;2023-04-03T01:33:32;3.10;99.90
3954;DHT22;1991;48.682;9.030;2023-04-03T01:35:58;3.10;99.90
3954;DHT22;1991;48.682;9.030;2023-04-03T01:38:23;3.10;99.90
3954;DHT22;1991;48.682;9.030;2023-04-03T01:40:49;3.10;99.90
3954;DHT22;1991;48.682;9.030;2023-04-03T01:43:14;3.10;99.90
3954;DHT22;1991;48.682;9.030;2023-04-03T01:45:40;3.10;99.90
3954;DHT22;1991;48.682;9.030;2023-04-03T01:48:06;3.10;99.90
3954;DHT22;1991;48.682;9.030;2023-04-03T01:50:31;3.00;99.90
3954;DHT22;1991;48.682;9.030;2023-04-03T01:52:57;3.00;99.90
3954;DHT22;1991;48.682;9.030;2023-04-03T01:55:22;2.90;99.90
3954;DHT22;1991;48.682;9.030;2023-04-03T01:57:48;2.90;99.90
3954;DHT22;1991;48.682;9.030;2023-04-03T02:00:14;2.90;99.90
3954;DHT22;1991;48.682;9.030;2023-04-03T02:02:40;2.90;99.90
3954;DHT22;1991;48.682;9.030;2023-04-03T02:05:06;2.90;99.90
3954;DHT22;1991;48.682;9.030;2023-04-03T02:07:32;2.90;99.90
3954;DHT22;1991;48.682;9.030;2023-04-03T02:09:57;2.90;99.90
3954;DHT22;1991;48.682;9.030;2023-04-03T02:12:23;2.80;99.90
3954;DHT22;1991;48.682;9.030;2023-04-03T02:14:48;2.80;99.90
3954;DHT22;1991;48.682;9.030;2023-04-03T02:17:14;2.80;99.90
3954;DHT22;1991;48.682;9.030;2023-04-03T02:19:40;2.70;99.90
3954;DHT22;1991;48.682;9.030;2023-04-03T02:22:06;2.70;99.90
3954;DHT22;1991;48.682;9.030;2023-04-03T02:24:32;2.70;99.90
3954;DHT22;1991;48.682;9.030;2023-04-03T02:26:57;2.70;99.90
3954;DHT22;1991;48.682;9.030;2023-04-03T02:29:23;2.70;99.90
3954;DHT22;1991;48.682;9.030;2023-04-03T02:31:49;2.70;99.90
3954;DHT22;1991;48.682;9.030;2023-04-03T02:34:15;2.80;99.90
3954;DHT22;1991;48.682;9.030;2023-04-03T02:36:41;2.70;99.90
3954;DHT22;1991;48.682;9.030;2023-04-03T02:39:07;2.80;99.90
3954;DHT22;1991;48.682;9.030;2023-04-03T02:41:33;2.80;99.90
3954;DHT22;1991;48.682;9.030;2023-04-03T02:44:02;2.80;99.90
3954;DHT22;1991;48.682;9.030;2023-04-03T02:46:28;2.80;99.90
3954;DHT22;1991;48.682;9.030;2023-04-03T02:48:54;2.80;99.90
3954;DHT22;1991;48.682;9.030;2023-04-03T02:51:19;2.80;99.90
3954;DHT22;1991;48.682;9.030;2023-04-03T02:53:45;2.90;99.90
3954;DHT22;1991;48.682;9.030;2023-04-03T02:56:11;2.80;99.90
3954;DHT22;1991;48.682;9.030;2023-04-03T02:58:36;2.90;99.90
3954;DHT22;1991;48.682;9.030;2023-04-03T03:01:02;2.90;99.90
3954;DHT22;1991;48.682;9.030;2023-04-03T03:03:28;2.90;99.90
3954;DHT22;1991;48.682;9.030;2023-04-03T03:06:11;2.90;99.90
3954;DHT22;1991;48.682;9.030;2023-04-03T03:08:37;2.90;99.90
3954;DHT22;1991;48.682;9.030;2023-04-03T03:11:04;2.90;99.90
3954;DHT22;1991;48.682;9.030;2023-04-03T03:13:30;3.00;99.90
3954;DHT22;1991;48.682;9.030;2023-04-03T03:15:55;3.00;99.90
3954;DHT22;1991;48.682;9.030;2023-04-03T03:18:21;3.00;99.90
3954;DHT22;1991;48.682;9.030;2023-04-03T03:20:55;3.00;99.90
3954;DHT22;1991;48.682;9.030;2023-04-03T03:23:22;3.00;99.90
3954;DHT22;1991;48.682;9.030;2023-04-03T03:25:48;3.10;99.90
3954;DHT22;1991;48.682;9.030;2023-04-03T03:28:14;3.10;99.90
3954;DHT22;1991;48.682;9.030;2023-04-03T03:30:40;3.00;99.90
3954;DHT22;1991;48.682;9.030;2023-04-03T03:33:05;3.00;99.90
3954;DHT22;1991;48.682;9.030;2023-04-03T03:35:32;2.90;99.90
3954;DHT22;1991;48.682;9.030;2023-04-03T03:37:57;2.90;99.90
3954;DHT22;1991;48.682;9.030;2023-04-03T03:40:23;2.90;99.90
3954;DHT22;1991;48.682;9.030;2023-04-03T03:42:48;3.00;99.90
3954;DHT22;1991;48.682;9.030;2023-04-03T03:45:14;3.00;99.90
3954;DHT22;1991;48.682;9.030;2023-04-03T03:47:40;2.90;99.90
3954;DHT22;1991;48.682;9.030;2023-04-03T03:50:06;3.00;99.90
3954;DHT22;1991;48.682;9.030;2023-04-03T03:52:32;3.00;99.90
3954;DHT22;1991;48.682;9.030;2023-04-03T03:54:57;3.00;99.90
3954;DHT22;1991;48.682;9.030;2023-04-03T03:57:23;3.00;99.90
3954;DHT22;1991;48.682;9.030;2023-04-03T03:59:48;3.10;99.90
3954;DHT22;1991;48.682;9.030;2023-04-03T04:02:15;3.10;99.90
3954;DHT22;1991;48.682;9.030;2023-04-03T04:04:41;3.10;99.90
3954;DHT22;1991;48.682;9.030;2023-04-03T04:07:07;3.00;99.90
3954;DHT22;1991;48.682;9.030;2023-04-03T04:09:32;3.00;99.90
3954;DHT22;1991;48.682;9.030;2023-04-03T04:11:58;3.00;99.90
3954;DHT22;1991;48.682;9.030;2023-04-03T04:14:23;3.00;99.90
3954;DHT22;1991;48.682;9.030;2023-04-03T04:16:49;3.00;99.90
3954;DHT22;1991;48.682;9.030;2023-04-03T04:19:15;3.00;99.90
3954;DHT22;1991;48.682;9.030;2023-04-03T04:21:40;3.00;99.90
3954;DHT22;1991;48.682;9.030;2023-04-03T04:24:07;3.00;99.90
3954;DHT22;1991;48.682;9.030;2023-04-03T04:26:33;3.10;99.90
3954;DHT22;1991;48.682;9.030;2023-04-03T04:28:58;3.10;99.90
3954;DHT22;1991;48.682;9.030;2023-04-03T04:31:24;3.00;99.90
3954;DHT22;1991;48.682;9.030;2023-04-03T04:33:50;3.00;99.90
3954;DHT22;1991;48.682;9.030;2023-04-03T04:36:15;3.10;99.90
3954;DHT22;1991;48.682;9.030;2023-04-03T04:38:41;3.10;99.90
3954;DHT22;1991;48.682;9.030;2023-04-03T04:41:07;3.10;99.90
3954;DHT22;1991;48.682;9.030;2023-04-03T04:43:33;3.00;99.90
3954;DHT22;1991;48.682;9.030;2023-04-03T04:46:06;3.00;99.90
3954;DHT22;1991;48.682;9.030;2023-04-03T04:48:33;3.10;99.90
3954;DHT22;1991;48.682;9.030;2023-04-03T04:50:58;3.10;99.90
3954;DHT22;1991;48.682;9.030;2023-04-03T04:53:24;3.10;99.90
3954;DHT22;1991;48.682;9.030;2023-04-03T04:55:50;3.00;99.90
3954;DHT22;1991;48.682;9.030;2023-04-03T04:58:15;3.10;99.90
3954;DHT22;1991;48.682;9.030;2023-04-03T05:00:41;3.00;99.80
3954;DHT22;1991;48.682;9.030;2023-04-03T05:03:07;3.00;99.80
3954;DHT22;1991;48.682;9.030;2023-04-03T05:05:32;3.00;99.90
3954;DHT22;1991;48.682;9.030;2023-04-03T05:07:58;3.10;99.90
3954;DHT22;1991;48.682;9.030;2023-04-03T05:10:23;3.10;98.60
3954;DHT22;1991;48.682;9.030;2023-04-03T05:12:49;3.10;98.70
3954;DHT22;1991;48.682;9.030;2023-04-03T05:15:15;3.10;99.00
3954;DHT22;1991;48.682;9.030;2023-04-03T05:17:40;3.10;97.20
3954;DHT22;1991;48.682;9.030;2023-04-03T05:20:06;3.20;97.70
3954;DHT22;1991;48.682;9.030;2023-04-03T05:22:32;3.20;95.50
3954;DHT22;1991;48.682;9.030;2023-04-03T05:24:57;3.20;93.90
3954;DHT22;1991;48.682;9.030;2023-04-03T05:27:23;3.20;93.80
3954;DHT22;1991;48.682;9.030;2023-04-03T05:29:49;3.20;93.20
3954;DHT22;1991;48.682;9.030;2023-04-03T05:32:15;3.20;92.20
3954;DHT22;1991;48.682;9.030;2023-04-03T05:34:41;3.40;91.60
3954;DHT22;1991;48.682;9.030;2023-04-03T05:37:06;3.40;92.50
3954;DHT22;1991;48.682;9.030;2023-04-03T05:39:32;3.40;91.50
3954;DHT22;1991;48.682;9.030;2023-04-03T05:41:59;3.50;90.60
3954;DHT22;1991;48.682;9.030;2023-04-03T05:44:24;3.60;88.40
3954;DHT22;1991;48.682;9.030;2023-04-03T05:46:50;3.60;87.80
3954;DHT22;1991;48.682;9.030;2023-04-03T05:49:16;3.70;86.90
3954;DHT22;1991;48.682;9.030;2023-04-03T05:51:41;3.70;87.10
3954;DHT22;1991;48.682;9.030;2023-04-03T05:54:13;3.80;86.60
3954;DHT22;1991;48.682;9.030;2023-04-03T05:56:40;3.90;88.20
3954;DHT22;1991;48.682;9.030;2023-04-03T05:59:06;3.90;88.20
3954;DHT22;1991;48.682;9.030;2023-04-03T06:01:32;3.70;88.30
3954;DHT22;1991;48.682;9.030;2023-04-03T06:03:59;3.70;86.50
3954;DHT22;1991;48.682;9.030;2023-04-03T06:06:25;3.70;86.20
3954;DHT22;1991;48.682;9.030;2023-04-03T06:08:51;3.60;87.60
3954;DHT22;1991;48.682;9.030;2023-04-03T06:11:17;3.70;87.70
3954;DHT22;1991;48.682;9.030;2023-04-03T06:13:42;3.70;89.30
3954;DHT22;1991;48.682;9.030;2023-04-03T06:16:12;3.70;88.70
3954;DHT22;1991;48.682;9.030;2023-04-03T06:18:39;3.70;89.60
3954;DHT22;1991;48.682;9.030;2023-04-03T06:21:05;3.80;90.20
3954;DHT22;1991;48.682;9.030;2023-04-03T06:23:33;4.00;88.90
3954;DHT22;1991;48.682;9.030;2023-04-03T06:25:58;4.00;89.40
3954;DHT22;1991;48.682;9.030;2023-04-03T06:28:24;4.10;89.20
3954;DHT22;1991;48.682;9.030;2023-04-03T06:30:49;4.20;88.90
3954;DHT22;1991;48.682;9.030;2023-04-03T06:33:15;4.20;88.70
3954;DHT22;1991;48.682;9.030;2023-04-03T06:35:40;4.20;88.20
3954;DHT22;1991;48.682;9.030;2023-04-03T06:38:06;4.20;87.80
3954;DHT22;1991;48.682;9.030;2023-04-03T06:40:35;4.30;87.00
3954;DHT22;1991;48.682;9.030;2023-04-03T06:43:01;4.40;87.10
3954;DHT22;1991;48.682;9.030;2023-04-03T06:45:27;4.50;86.60
3954;DHT22;1991;48.682;9.030;2023-04-03T06:47:53;4.70;86.10
3954;DHT22;1991;48.682;9.030;2023-04-03T06:50:18;4.70;86.30
3954;DHT22;1991;48.682;9.030;2023-04-03T06:52:44;4.80;85.60
3954;DHT22;1991;48.682;9.030;2023-04-03T06:55:10;4.90;85.00
3954;DHT22;1991;48.682;9.030;2023-04-03T06:57:35;5.00;84.80
3954;DHT22;1991;48.682;9.030;2023-04-03T07:00:03;5.10;84.60
3954;DHT22;1991;48.682;9.030;2023-04-03T07:02:30;5.20;84.10
3954;DHT22;1991;48.682;9.030;2023-04-03T07:04:56;5.30;82.60
3954;DHT22;1991;48.682;9.030;2023-04-03T07:07:21;5.30;81.20
3954;DHT22;1991;48.682;9.030;2023-04-03T07:09:47;5.60;81.60
3954;DHT22;1991;48.682;9.030;2023-04-03T07:12:13;5.70;81.30
3954;DHT22;1991;48.682;9.030;2023-04-03T07:14:39;5.90;80.70
3954;DHT22;1991;48.682;9.030;2023-04-03T07:17:05;6.00;77.30
3954;DHT22;1991;48.682;9.030;2023-04-03T07:19:31;6.10;78.00
3954;DHT22;1991;48.682;9.030;2023-04-03T07:21:56;6.30;77.70
3954;DHT22;1991;48.682;9.030;2023-04-03T07:24:22;6.40;78.00
3954;DHT22;1991;48.682;9.030;2023-04-03T07:26:52;6.40;77.30
3954;DHT22;1991;48.682;9.030;2023-04-03T07:29:17;6.30;76.30
3954;DHT22;1991;48.682;9.030;2023-04-03T07:31:44;6.50;76.10
3954;DHT22;1991;48.682;9.030;2023-04-03T07:34:10;6.60;75.90
3954;DHT22;1991;48.682;9.030;2023-04-03T07:36:36;6.70;76.40
3954;DHT22;1991;48.682;9.030;2023-04-03T07:39:03;6.70;74.70
3954;DHT22;1991;48.682;9.030;2023-04-03T07:41:28;6.80;75.40
3954;DHT22;1991;48.682;9.030;2023-04-03T07:43:55;6.70;74.80
3954;DHT22;1991;48.682;9.030;2023-04-03T07:46:22;6.80;75.40
3954;DHT22;1991;48.682;9.030;2023-04-03T07:48:47;6.90;73.70
3954;DHT22;1991;48.682;9.030;2023-04-03T07:51:13;7.00;74.20
3954;DHT22;1991;48.682;9.030;2023-04-03T07:53:39;7.10;72.80
3954;DHT22;1991;48.682;9.030;2023-04-03T07:56:04;7.20;71.40
3954;DHT22;1991;48.682;9.030;2023-04-03T07:58:30;7.50;73.10
3954;DHT22;1991;48.682;9.030;2023-04-03T08:00:56;7.80;71.00
3954;DHT22;1991;48.682;9.030;2023-04-03T08:03:22;7.90;71.80
3954;DHT22;1991;48.682;9.030;2023-04-03T08:05:48;7.70;69.90
3954;DHT22;1991;48.682;9.030;2023-04-03T08:08:17;7.90;70.90
3954;DHT22;1991;48.682;9.030;2023-04-03T08:10:43;8.10;70.70
3954;DHT22;1991;48.682;9.030;2023-04-03T08:13:09;8.40;68.50
3954;DHT22;1991;48.682;9.030;2023-04-03T08:15:35;8.50;67.20
3954;DHT22;1991;48.682;9.030;2023-04-03T08:18:01;8.60;66.60
3954;DHT22;1991;48.682;9.030;2023-04-03T08:20:27;8.50;65.70
3954;DHT22;1991;48.682;9.030;2023-04-03T08:22:53;8.60;65.60
3954;DHT22;1991;48.682;9.030;2023-04-03T08:25:19;8.30;65.50
3954;DHT22;1991;48.682;9.030;2023-04-03T08:27:44;8.50;64.40
3954;DHT22;1991;48.682;9.030;2023-04-03T08:30:10;8.70;65.00
3954;DHT22;1991;48.682;9.030;2023-04-03T08:32:36;8.90;65.60
3954;DHT22;1991;48.682;9.030;2023-04-03T08:35:04;9.20;66.10
3954;DHT22;1991;48.682;9.030;2023-04-03T08:37:30;9.30;64.20
3954;DHT22;1991;48.682;9.030;2023-04-03T08:39:55;9.40;63.30
3954;DHT22;1991;48.682;9.030;2023-04-03T08:44:55;9.50;65.10
3954;DHT22;1991;48.682;9.030;2023-04-03T08:47:29;9.50;63.40
3954;DHT22;1991;48.682;9.030;2023-04-03T08:50:02;9.60;62.90
3954;DHT22;1991;48.682;9.030;2023-04-03T08:55:05;9.90;60.10
3954;DHT22;1991;48.682;9.030;2023-04-03T08:57:43;9.80;62.20
3954;DHT22;1991;48.682;9.030;2023-04-03T09:02:45;9.80;62.90
3954;DHT22;1991;48.682;9.030;2023-04-03T09:05:20;10.20;63.20
3954;DHT22;1991;48.682;9.030;2023-04-03T09:08:26;10.30;62.20
3954;DHT22;1991;48.682;9.030;2023-04-03T09:10:59;9.90;61.20
3954;DHT22;1991;48.682;9.030;2023-04-03T09:13:50;10.00;61.90
3954;DHT22;1991;48.682;9.030;2023-04-03T09:16:28;10.50;61.80
3954;DHT22;1991;48.682;9.030;2023-04-03T09:21:50;9.70;61.10
3954;DHT22;1991;48.682;9.030;2023-04-03T09:24:17;9.40;63.20
3954;DHT22;1991;48.682;9.030;2023-04-03T09:26:53;9.20;63.40
3954;DHT22;1991;48.682;9.030;2023-04-03T09:29:23;8.60;65.50
3954;DHT22;1991;48.682;9.030;2023-04-03T09:31:52;8.90;65.80
3954;DHT22;1991;48.682;9.030;2023-04-03T09:34:35;8.90;65.60
3954;DHT22;1991;48.682;9.030;2023-04-03T09:37:04;8.70;65.60
3954;DHT22;1991;48.682;9.030;2023-04-03T09:39:53;8.50;65.90
3954;DHT22;1991;48.682;9.030;2023-04-03T09:42:23;8.50;66.30
3954;DHT22;1991;48.682;9.030;2023-04-03T09:45:00;8.30;64.80
3954;DHT22;1991;48.682;9.030;2023-04-03T09:47:31;8.20;65.10
3954;DHT22;1991;48.682;9.030;2023-04-03T09:52:50;7.70;67.30
3954;DHT22;1991;48.682;9.030;2023-04-03T09:55:25;7.60;66.60
3954;DHT22;1991;48.682;9.030;2023-04-03T09:58:03;7.60;67.30
3954;DHT22;1991;48.682;9.030;2023-04-03T10:00:34;7.50;67.20
3954;DHT22;1991;48.682;9.030;2023-04-03T10:03:00;7.40;67.40
3954;DHT22;1991;48.682;9.030;2023-04-03T10:05:36;7.30;68.70
3954;DHT22;1991;48.682;9.030;2023-04-03T10:13:35;7.70;63.30
3954;DHT22;1991;48.682;9.030;2023-04-03T10:16:06;7.90;61.60
3954;DHT22;1991;48.682;9.030;2023-04-03T10:18:45;8.40;62.60
3954;DHT22;1991;48.682;9.030;2023-04-03T10:21:38;9.20;63.60
3954;DHT22;1991;48.682;9.030;2023-04-03T10:24:21;9.70;61.30
3954;DHT22;1991;48.682;9.030;2023-04-03T10:27:13;10.60;57.40
3954;DHT22;1991;48.682;9.030;2023-04-03T10:35:16;12.00;54.10
3954;DHT22;1991;48.682;9.030;2023-04-03T10:40:45;11.20;53.60
3954;DHT22;1991;48.682;9.030;2023-04-03T10:43:42;10.90;56.20
3954;DHT22;1991;48.682;9.030;2023-04-03T10:46:38;10.50;57.10
3954;DHT22;1991;48.682;9.030;2023-04-03T10:57:29;10.50;55.90
3954;DHT22;1991;48.682;9.030;2023-04-03T10:59:59;10.40;54.20
3954;DHT22;1991;48.682;9.030;2023-04-03T11:02:32;10.30;54.30
3954;DHT22;1991;48.682;9.030;2023-04-03T11:08:02;9.70;54.60
3954;DHT22;1991;48.682;9.030;2023-04-03T11:10:41;9.50;56.10
3954;DHT22;1991;48.682;9.030;2023-04-03T11:15:53;9.60;58.40
3954;DHT22;1991;48.682;9.030;2023-04-03T11:23:40;9.70;57.70
3954;DHT22;1991;48.682;9.030;2023-04-03T11:26:14;9.70;57.60
3954;DHT22;1991;48.682;9.030;2023-04-03T11:28:41;9.20;58.20
3954;DHT22;1991;48.682;9.030;2023-04-03T11:36:56;8.70;60.40
3954;DHT22;1991;48.682;9.030;2023-04-03T11:39:33;8.40;61.10
3954;DHT22;1991;48.682;9.030;2023-04-03T11:47:51;7.70;62.60
3954;DHT22;1991;48.682;9.030;2023-04-03T11:50:32;7.80;61.90
3954;DHT22;1991;48.682;9.030;2023-04-03T12:01:06;7.90;59.90
3954;DHT22;1991;48.682;9.030;2023-04-03T12:16:08;7.80;61.00
3954;DHT22;1991;48.682;9.030;2023-04-03T12:18:57;8.00;60.30
3954;DHT22;1991;48.682;9.030;2023-04-03T12:24:23;8.80;58.90
3954;DHT22;1991;48.682;9.030;2023-04-03T12:32:34;8.80;56.70
3954;DHT22;1991;48.682;9.030;2023-04-03T12:43:53;7.40;59.60
3954;DHT22;1991;48.682;9.030;2023-04-03T12:46:33;7.30;60.50
3954;DHT22;1991;48.682;9.030;2023-04-03T12:49:00;7.30;60.90
3954;DHT22;1991;48.682;9.030;2023-04-03T12:51:38;7.40;59.90
3954;DHT22;1991;48.682;9.030;2023-04-03T12:54:22;7.50;59.40
3954;DHT22;1991;48.682;9.030;2023-04-03T12:56:48;7.40;61.00
3954;DHT22;1991;48.682;9.030;2023-04-03T12:59:21;7.60;61.00
3954;DHT22;1991;48.682;9.030;2023-04-03T13:02:01;7.90;60.90
3954;DHT22;1991;48.682;9.030;2023-04-03T13:04:29;8.40;59.30
3954;DHT22;1991;48.682;9.030;2023-04-03T13:06:55;9.00;57.40
3954;DHT22;1991;48.682;9.030;2023-04-03T13:09:31;9.80;56.20
3954;DHT22;1991;48.682;9.030;2023-04-03T13:11:58;11.00;53.90
3954;DHT22;1991;48.682;9.030;2023-04-03T13:14:26;11.00;52.60
3954;DHT22;1991;48.682;9.030;2023-04-03T13:17:12;11.50;52.00
3954;DHT22;1991;48.682;9.030;2023-04-03T13:19:40;11.10;53.60
3954;DHT22;1991;48.682;9.030;2023-04-03T13:22:23;10.60;53.60
3954;DHT22;1991;48.682;9.030;2023-04-03T13:24:51;10.20;54.80
3954;DHT22;1991;48.682;9.030;2023-04-03T13:27:17;10.40;51.40
3954;DHT22;1991;48.682;9.030;2023-04-03T13:29:43;10.60;50.30
3954;DHT22;1991;48.682;9.030;2023-04-03T13:32:22;10.80;49.00
3954;DHT22;1991;48.682;9.030;2023-04-03T13:34:49;10.90;49.80
3954;DHT22;1991;48.682;9.030;2023-04-03T13:37:52;10.80;49.90
3954;DHT22;1991;48.682;9.030;2023-04-03T13:40:19;10.90;49.30
3954;DHT22;1991;48.682;9.030;2023-04-03T13:42:44;10.70;49.00
3954;DHT22;1991;48.682;9.030;2023-04-03T13:45:21;10.70;49.50
3954;DHT22;1991;48.682;9.030;2023-04-03T13:47:50;10.60;49.20
3954;DHT22;1991;48.682;9.030;2023-04-03T13:50:26;11.90;47.70
3954;DHT22;1991;48.682;9.030;2023-04-03T13:55:34;11.80;46.10
3954;DHT22;1991;48.682;9.030;2023-04-03T13:58:19;11.50;46.70
3954;DHT22;1991;48.682;9.030;2023-04-03T14:03:58;9.90;49.10
3954;DHT22;1991;48.682;9.030;2023-04-03T14:05:59;9.30;50.90
3954;DHT22;1991;48.682;9.030;2023-04-03T14:08:26;8.80;52.20
3954;DHT22;1991;48.682;9.030;2023-04-03T14:10:53;8.70;53.20
3954;DHT22;1991;48.682;9.030;2023-04-03T14:13:20;8.50;52.60
3954;DHT22;1991;48.682;9.030;2023-04-03T14:15:47;8.40;53.90
3954;DHT22;1991;48.682;9.030;2023-04-03T14:18:15;8.40;53.70
3954;DHT22;1991;48.682;9.030;2023-04-03T14:20:42;8.60;52.40
3954;DHT22;1991;48.682;9.030;2023-04-03T14:23:08;8.90;53.00
3954;DHT22;1991;48.682;9.030;2023-04-03T14:25:34;9.10;51.70
3954;DHT22;1991;48.682;9.030;2023-04-03T14:28:00;9.30;51.10
3954;DHT22;1991;48.682;9.030;2023-04-03T14:30:29;9.20;50.80
3954;DHT22;1991;48.682;9.030;2023-04-03T14:32:55;9.30;50.70
3954;DHT22;1991;48.682;9.030;2023-04-03T14:35:22;9.20;49.90
3954;DHT22;1991;48.682;9.030;2023-04-03T14:37:48;9.10;51.80
3954;DHT22;1991;48.682;9.030;2023-04-03T14:40:22;8.90;51.30
3954;DHT22;1991;48.682;9.030;2023-04-03T14:42:48;8.70;52.60
3954;DHT22;1991;48.682;9.030;2023-04-03T14:45:15;8.60;52.00
3954;DHT22;1991;48.682;9.030;2023-04-03T14:47:46;8.60;52.60
3954;DHT22;1991;48.682;9.030;2023-04-03T14:50:19;8.40;53.40
3954;DHT22;1991;48.682;9.030;2023-04-03T14:52:47;8.40;52.70
3954;DHT22;1991;48.682;9.030;2023-04-03T14:55:16;8.30;54.00
3954;DHT22;1991;48.682;9.030;2023-04-03T14:57:42;8.20;53.90
3954;DHT22;1991;48.682;9.030;2023-04-03T15:00:13;8.30;53.40
3954;DHT22;1991;48.682;9.030;2023-04-03T15:02:39;8.20;54.80
3954;DHT22;1991;48.682;9.030;2023-04-03T15:05:07;8.40;54.20
3954;DHT22;1991;48.682;9.030;2023-04-03T15:07:42;8.30;54.70
3954;DHT22;1991;48.682;9.030;2023-04-03T15:12:41;8.30;53.50
3954;DHT22;1991;48.682;9.030;2023-04-03T15:15:08;9.00;53.60
3954;DHT22;1991;48.682;9.030;2023-04-03T15:17:34;10.30;50.30
3954;DHT22;1991;48.682;9.030;2023-04-03T15:20:01;11.90;48.20
3954;DHT22;1991;48.682;9.030;2023-04-03T15:22:27;13.20;44.90
3954;DHT22;1991;48.682;9.030;2023-04-03T15:24:53;13.80;43.30
3954;DHT22;1991;48.682;9.030;2023-04-03T15:27:18;13.60;42.60
3954;DHT22;1991;48.682;9.030;2023-04-03T15:29:44;12.40;42.90
3954;DHT22;1991;48.682;9.030;2023-04-03T15:32:11;11.30;43.70
3954;DHT22;1991;48.682;9.030;2023-04-03T15:34:37;10.40;46.40
3954;DHT22;1991;48.682;9.030;2023-04-03T15:37:03;10.00;46.80
3954;DHT22;1991;48.682;9.030;2023-04-03T15:39:29;9.70;47.70
3954;DHT22;1991;48.682;9.030;2023-04-03T15:41:55;9.50;48.20
3954;DHT22;1991;48.682;9.030;2023-04-03T15:44:21;9.40;49.30
3954;DHT22;1991;48.682;9.030;2023-04-03T15:46:47;9.30;49.40
3954;DHT22;1991;48.682;9.030;2023-04-03T15:49:17;9.20;49.50
3954;DHT22;1991;48.682;9.030;2023-04-03T15:51:44;9.10;49.80
3954;DHT22;1991;48.682;9.030;2023-04-03T15:54:10;8.90;50.60
3954;DHT22;1991;48.682;9.030;2023-04-03T15:56:35;8.70;50.50
3954;DHT22;1991;48.682;9.030;2023-04-03T15:59:01;8.60;50.60
3954;DHT22;1991;48.682;9.030;2023-04-03T16:01:27;8.40;50.70
3954;DHT22;1991;48.682;9.030;2023-04-03T16:03:52;8.40;51.70
3954;DHT22;1991;48.682;9.030;2023-04-03T16:06:19;8.50;51.60
3954;DHT22;1991;48.682;9.030;2023-04-03T16:08:46;8.60;50.70
3954;DHT22;1991;48.682;9.030;2023-04-03T16:11:13;8.70;50.00
3954;DHT22;1991;48.682;9.030;2023-04-03T16:13:38;8.60;49.40
3954;DHT22;1991;48.682;9.030;2023-04-03T16:16:04;8.50;50.80
3954;DHT22;1991;48.682;9.030;2023-04-03T16:18:31;8.30;50.00
3954;DHT22;1991;48.682;9.030;2023-04-03T16:20:56;7.90;50.50
3954;DHT22;1991;48.682;9.030;2023-04-03T16:23:22;7.60;51.90
3954;DHT22;1991;48.682;9.030;2023-04-03T16:25:48;7.40;52.70
3954;DHT22;1991;48.682;9.030;2023-04-03T16:28:15;7.10;52.20
3954;DHT22;1991;48.682;9.030;2023-04-03T16:30:43;7.00;53.70
3954;DHT22;1991;48.682;9.030;2023-04-03T16:33:10;7.00;53.50
3954;DHT22;1991;48.682;9.030;2023-04-03T16:35:36;7.20;53.90
3954;DHT22;1991;48.682;9.030;2023-04-03T16:38:02;7.20;53.80
3954;DHT22;1991;48.682;9.030;2023-04-03T16:40:28;7.40;53.80
3954;DHT22;1991;48.682;9.030;2023-04-03T16:42:54;7.40;53.60
3954;DHT22;1991;48.682;9.030;2023-04-03T16:45:20;7.60;52.90
3954;DHT22;1991;48.682;9.030;2023-04-03T16:47:45;7.50;52.40
3954;DHT22;1991;48.682;9.030;2023-04-03T16:50:11;7.50;53.10
3954;DHT22;1991;48.682;9.030;2023-04-03T16:52:37;7.30;53.30
3954;DHT22;1991;48.682;9.030;2023-04-03T16:55:02;7.00;53.60
3954;DHT22;1991;48.682;9.030;2023-04-03T16:57:28;6.90;52.50
3954;DHT22;1991;48.682;9.030;2023-04-03T16:59:54;6.70;52.30
3954;DHT22;1991;48.682;9.030;2023-04-03T17:02:21;6.60;51.70
3954;DHT22;1991;48.682;9.030;2023-04-03T17:04:50;6.40;52.10
3954;DHT22;1991;48.682;9.030;2023-04-03T17:07:16;6.20;52.10
3954;DHT22;1991;48.682;9.030;2023-04-03T17:09:42;6.10;52.30
3954;DHT22;1991;48.682;9.030;2023-04-03T17:12:08;6.00;54.30
3954;DHT22;1991;48.682;9.030;2023-04-03T17:14:33;5.80;54.60
3954;DHT22;1991;48.682;9.030;2023-04-03T17:16:59;5.90;54.20
3954;DHT22;1991;48.682;9.030;2023-04-03T17:19:24;5.90;53.90
3954;DHT22;1991;48.682;9.030;2023-04-03T17:21:51;5.90;53.80
3954;DHT22;1991;48.682;9.030;2023-04-03T17:24:17;5.90;54.90
3954;DHT22;1991;48.682;9.030;2023-04-03T17:26:42;5.90;55.00
3954;DHT22;1991;48.682;9.030;2023-04-03T17:29:08;5.80;54.60
3954;DHT22;1991;48.682;9.030;2023-04-03T17:31:34;5.80;55.20
3954;DHT22;1991;48.682;9.030;2023-04-03T17:34:00;5.80;55.50
3954;DHT22;1991;48.682;9.030;2023-04-03T17:36:30;5.70;55.70
3954;DHT22;1991;48.682;9.030;2023-04-03T17:38:57;5.60;56.60
3954;DHT22;1991;48.682;9.030;2023-04-03T17:41:22;5.60;56.90
3954;DHT22;1991;48.682;9.030;2023-04-03T17:43:48;5.60;56.20
3954;DHT22;1991;48.682;9.030;2023-04-03T17:46:14;5.60;56.50
3954;DHT22;1991;48.682;9.030;2023-04-03T17:48:42;5.60;57.70
3954;DHT22;1991;48.682;9.030;2023-04-03T17:51:10;5.50;57.10
3954;DHT22;1991;48.682;9.030;2023-04-03T17:53:37;5.40;57.20
3954;DHT22;1991;48.682;9.030;2023-04-03T17:56:10;5.40;57.40
3954;DHT22;1991;48.682;9.030;2023-04-03T17:58:36;5.40;58.70
3954;DHT22;1991;48.682;9.030;2023-04-03T18:01:20;5.40;57.70
3954;DHT22;1991;48.682;9.030;2023-04-03T18:03:46;5.30;58.80
3954;DHT22;1991;48.682;9.030;2023-04-03T18:06:18;5.20;57.50
3954;DHT22;1991;48.682;9.030;2023-04-03T18:08:52;5.20;58.60
3954;DHT22;1991;48.682;9.030;2023-04-03T18:11:19;5.10;58.30
3954;DHT22;1991;48.682;9.030;2023-04-03T18:13:46;5.10;58.00
3954;DHT22;1991;48.682;9.030;2023-04-03T18:16:12;5.00;58.70
3954;DHT22;1991;48.682;9.030;2023-04-03T18:18:38;5.00;58.40
3954;DHT22;1991;48.682;9.030;2023-04-03T18:21:06;4.90;58.60